createdAt,value
2018-12-02T00:01:57.231Z,25.60
2018-12-02T00:04:26.706Z,32.27
2018-12-02T00:06:56.391Z,37.97
2018-12-02T00:09:26.508Z,34.93
2018-12-02T00:11:57.493Z,27.80
2018-12-02T00:14:27.150Z,22.63
2018-12-02T00:16:56.966Z,33.93
2018-12-02T00:19:26.806Z,26.73
2018-12-02T00:21:56.752Z,29.27
2018-12-02T00:24:26.806Z,23.20
2018-12-02T00:26:56.484Z,31.50
2018-12-02T00:29:26.339Z,21.83
2018-12-02T00:31:56.113Z,31.45
2018-12-02T00:34:25.188Z,23.63
2018-12-02T00:36:54.879Z,41.70
2018-12-02T00:39:25.524Z,46.90
2018-12-02T00:41:55.134Z,25.63
2018-12-02T00:44:24.477Z,25.60
2018-12-02T00:46:53.648Z,18.83
2018-12-02T00:49:23.276Z,22.00
2018-12-02T00:51:53.002Z,19.00
2018-12-02T00:54:22.640Z,18.93
2018-12-02T00:56:51.958Z,16.93
2018-12-02T00:59:21.149Z,18.40
2018-12-02T01:01:51.248Z,17.67
2018-12-02T01:04:23.099Z,17.43
2018-12-02T01:06:53.663Z,20.33
2018-12-02T01:09:22.081Z,20.27
2018-12-02T01:11:51.788Z,25.75
2018-12-02T01:14:21.510Z,33.92
2018-12-02T01:16:50.875Z,23.17
2018-12-02T01:19:20.521Z,30.35
2018-12-02T01:21:49.831Z,37.38
2018-12-02T01:24:19.891Z,23.97
2018-12-02T01:26:49.426Z,21.93
2018-12-02T01:29:19.662Z,18.67
2018-12-02T01:31:48.974Z,18.53
2018-12-02T01:34:18.935Z,19.07
2018-12-02T01:36:48.096Z,17.17
2018-12-02T01:39:17.515Z,18.17
2018-12-02T01:41:47.433Z,16.57
2018-12-02T01:44:17.819Z,25.75
2018-12-02T01:46:47.241Z,20.67
2018-12-02T01:49:17.024Z,17.07
2018-12-02T01:51:46.981Z,18.10
2018-12-02T01:54:16.545Z,18.20
2018-12-02T01:56:45.605Z,19.40
2018-12-02T01:59:15.188Z,18.63
2018-12-02T02:01:44.722Z,19.03
2018-12-02T02:04:14.206Z,18.37
2018-12-02T02:06:44.097Z,19.50
2018-12-02T02:09:13.787Z,19.50
2018-12-02T02:11:43.041Z,18.97
2018-12-02T02:14:12.396Z,17.53
2018-12-02T02:16:42.089Z,18.97
2018-12-02T02:19:11.681Z,18.80
2018-12-02T02:21:41.002Z,19.57
2018-12-02T02:24:11.789Z,20.27
2018-12-02T02:26:41.711Z,19.90
2018-12-02T02:29:11.416Z,21.27
2018-12-02T02:31:41.214Z,19.17
2018-12-02T02:34:19.655Z,20.63
2018-12-02T02:36:49.214Z,19.87
2018-12-02T02:39:18.653Z,23.55
2018-12-02T02:41:57.676Z,19.67
2018-12-02T02:44:27.171Z,18.87
2018-12-02T02:46:56.553Z,19.67
2018-12-02T02:49:25.932Z,19.40
2018-12-02T02:51:56.855Z,19.93
2018-12-02T02:54:25.904Z,19.60
2018-12-02T02:56:55.580Z,20.30
2018-12-02T02:59:25.073Z,19.17
2018-12-02T03:01:55.073Z,19.60
2018-12-02T03:04:24.433Z,18.77
2018-12-02T03:06:53.932Z,18.87
2018-12-02T03:09:23.358Z,18.33
2018-12-02T03:11:54.029Z,18.57
2018-12-02T03:14:23.529Z,18.30
2018-12-02T03:16:53.807Z,19.13
2018-12-02T03:19:23.346Z,20.00
2018-12-02T03:21:53.184Z,19.43
2018-12-02T03:24:22.845Z,19.50
2018-12-02T03:26:52.140Z,17.60
2018-12-02T03:29:21.855Z,18.93
2018-12-02T03:31:51.874Z,18.00
2018-12-02T03:34:21.138Z,19.43
2018-12-02T03:36:50.260Z,17.57
2018-12-02T03:39:20.362Z,17.83
2018-12-02T03:41:49.785Z,18.43
2018-12-02T03:44:19.382Z,17.97
2018-12-02T03:46:48.511Z,17.60
2018-12-02T03:49:18.190Z,18.07
2018-12-02T03:51:47.272Z,18.03
2018-12-02T03:54:17.224Z,18.67
2018-12-02T03:56:49.501Z,19.77
2018-12-02T03:59:19.317Z,18.17
2018-12-02T04:01:49.439Z,17.60
2018-12-02T04:04:20.192Z,17.83
2018-12-02T04:06:50.037Z,18.23
2018-12-02T04:09:19.720Z,17.07
2018-12-02T04:11:49.044Z,16.87
2018-12-02T04:14:19.430Z,18.43
2018-12-02T04:16:48.731Z,17.43
2018-12-02T04:19:19.213Z,17.43
2018-12-02T04:21:49.171Z,17.17
2018-12-02T04:24:18.585Z,15.20
2018-12-02T04:26:47.842Z,16.00
2018-12-02T04:29:16.999Z,15.47
2018-12-02T04:31:46.990Z,14.83
2018-12-02T04:34:17.278Z,13.47
2018-12-02T04:36:47.751Z,10.83
2018-12-02T04:39:18.150Z,11.53
2018-12-02T04:41:51.449Z,9.63
2018-12-02T04:44:22.081Z,10.10
2018-12-02T04:46:52.360Z,11.33
2018-12-02T04:49:21.792Z,11.97
2018-12-02T04:51:51.323Z,10.27
2018-12-02T04:54:21.119Z,10.97
2018-12-02T04:56:50.464Z,8.83
2018-12-02T04:59:20.050Z,7.40
2018-12-02T05:01:49.707Z,7.70
2018-12-02T05:04:19.668Z,6.17
2018-12-02T05:06:50.900Z,7.07
2018-12-02T05:09:20.325Z,6.97
2018-12-02T05:11:49.704Z,6.30
2018-12-02T05:14:19.002Z,5.60
2018-12-02T05:16:50.723Z,6.90
2018-12-02T05:19:19.896Z,6.57
2018-12-02T05:21:49.382Z,8.07
2018-12-02T05:24:18.775Z,9.57
2018-12-02T05:26:49.805Z,9.57
2018-12-02T05:29:19.453Z,10.07
2018-12-02T05:31:49.140Z,8.83
2018-12-02T05:34:18.343Z,9.10
2018-12-02T05:36:47.908Z,9.57
2018-12-02T05:39:17.442Z,10.13
2018-12-02T05:41:56.888Z,11.63
2018-12-02T05:44:26.386Z,11.53
2018-12-02T05:46:56.034Z,10.87
2018-12-02T05:49:26.227Z,12.43
2018-12-02T05:51:55.337Z,11.90
2018-12-02T05:54:24.662Z,10.27
2018-12-02T05:56:54.109Z,10.37
2018-12-02T05:59:24.021Z,13.10
2018-12-02T06:01:53.397Z,14.20
2018-12-02T06:04:23.072Z,12.63
2018-12-02T06:06:52.695Z,12.87
2018-12-02T06:09:22.795Z,14.53
2018-12-02T06:11:51.962Z,14.90
2018-12-02T06:14:21.064Z,14.77
2018-12-02T06:16:50.451Z,11.27
2018-12-02T06:19:19.486Z,11.40
2018-12-02T06:21:48.593Z,11.63
2018-12-02T06:24:21.148Z,10.73
2018-12-02T06:26:50.762Z,11.07
2018-12-02T06:29:19.940Z,10.30
2018-12-02T06:31:57.499Z,10.73
2018-12-02T06:34:26.571Z,9.03
2018-12-02T06:36:56.100Z,10.40
2018-12-02T06:39:25.170Z,11.17
2018-12-02T23:43:01.490Z,0.80
2018-12-02T23:45:39.750Z,0.90
2018-12-02T23:48:16.322Z,0.60
2018-12-02T23:51:08.345Z,0.70
2018-12-02T23:53:48.034Z,1.37
2018-12-02T23:56:26.086Z,0.70
2018-12-02T23:59:05.030Z,0.70
